KHUL/HUL METAR and TAF weather

Enter ICAO airport designator
Station Type Date Time Source
KHUL METAR 2022/06/30 13:02 UTC NOAA

KHUL 301302Z AUTO 34008KT 10SM OVC016 17/14 A3008 RMK AO2 T01720139


Station Type Date Time Source
KHUL Decoded METAR 2022/06/30 13:02 UTC NOAA

HOULTON INT'L AIRPORT, ME, United States (KHUL) 46-07N 067-48W 150M
Jun 30, 2022 - 09:02 AM EDT / 2022.06.30 1302 UTC
Wind: from the NNW (340 degrees) at 9 MPH (8 KT):0
Visibility: 10 mile(s):0
Sky conditions: overcast
Temperature: 63.0 F (17.2 C)
Dew Point: 57.0 F (13.9 C)
Relative Humidity: 80%
Pressure (altimeter): 30.08 in. Hg (1018 hPa)
ob: KHUL 301302Z AUTO 34008KT 10SM OVC016 17/14 A3008 RMK AO2 T01720139
cycle: 13

Station Type Date Time Source
KHUL TAF 2022/06/30 12:24 UTC NOAA

TAF KHUL 301120Z 3012/0112 30005KT P6SM VCSH BKN040
FM301500 33007KT P6SM VCSH BKN035
FM301800 33008KT P6SM SCT045
FM010000 00000KT P6SM FEW250
FM011100 19005KT P6SM BKN090

Example: see airport list